Observations for CARLISLE, United Kingdom (GNC)

KGNC 130855Z AUTO 29012KT 10SM SCT070 OVC090 10/03 A2976 RMK AO2 T00960032  
KGNC 130835Z AUTO 27009KT 10SM OVC100 08/04 A2977 RMK AO2 T00790041 
KGNC 130815Z AUTO 28009KT 10SM BKN095 08/04 A2976 RMK AO2 T00750044 
KGNC 130755Z AUTO 24010KT 10SM SCT095 08/05 A2974 RMK AO2 T00790045 
KGNC 130735Z AUTO 23010KT 10SM CLR 08/05 A2974 RMK AO2 T00800045
KGNC 130715Z AUTO 23008KT 10SM CLR 08/05 A2975 RMK AO2 T00810046
KGNC 130655Z AUTO 23010KT 10SM CLR 09/05 A2975 RMK AO2 T00860048
KGNC 130635Z AUTO 23011KT 10SM CLR 08/05 A2976 RMK AO2 T00810047
KGNC 130615Z AUTO 23010KT 10SM CLR 08/05 A2978 RMK AO2 T00800047
KGNC 130555Z AUTO 23009KT 10SM CLR 08/05 A2978 RMK AO2 T00780046 10146 20078 402050026  
KGNC 130535Z AUTO 23010KT 10SM CLR 08/05 A2979 RMK AO2 T00810047
KGNC 130515Z AUTO 23010KT 10SM CLR 08/05 A2979 RMK AO2 T00840047
KGNC 130455Z AUTO 23010KT 10SM CLR 09/05 A2980 RMK AO2 T00900050
KGNC 130435Z AUTO 23010KT 10SM CLR 09/05 A2981 RMK AO2 T00860050
KGNC 130415Z AUTO 23009KT 10SM CLR 09/05 A2981 RMK AO2 T00870051
KGNC 130355Z AUTO 23009KT 10SM CLR 09/05 A2981 RMK AO2 T00940052
KGNC 130335Z AUTO 22010KT 10SM CLR 10/06 A2981 RMK AO2 T00970055
KGNC 130315Z AUTO 22009KT 10SM CLR 11/06 A2981 RMK AO2 T01070057
KGNC 130255Z AUTO 23010KT 10SM CLR 11/06 A2981 RMK AO2 T01130057
KGNC 130235Z AUTO 23009KT 10SM CLR 11/06 A2981 RMK AO2 T01130058
KGNC 130215Z AUTO 23009KT 10SM CLR 11/06 A2981 RMK AO2 T01140060
KGNC 130155Z AUTO 22008KT 10SM CLR 11/06 A2981 RMK AO2 T01100059
KGNC 130135Z AUTO 23006KT 10SM CLR 11/06 A2981 RMK AO2 T01130058
KGNC 130115Z AUTO 22008KT 10SM CLR 12/06 A2981 RMK AO2 T01200060
KGNC 130055Z AUTO 22008KT 10SM CLR 12/06 A2981 RMK AO2 T01220060
KGNC 130035Z AUTO 23007KT 10SM CLR 13/06 A2982 RMK AO2 T01270060
KGNC 130015Z AUTO 23007KT 10SM CLR 13/06 A2982 RMK AO2 T01310057
KGNC 122355Z AUTO 23006KT 10SM CLR 15/05 A2982 RMK AO2 T01480054 10205 20106
KGNC 122335Z AUTO 23009G15KT 10SM CLR 16/05 A2982 RMK AO2 T01620049 
KGNC 122315Z AUTO 24010KT 10SM CLR 17/05 A2982 RMK AO2 T01670045
KGNC 122255Z AUTO 25011KT 10SM CLR 17/04 A2983 RMK AO2 T01690041
KGNC 122235Z AUTO 25010KT 10SM CLR 17/06 A2983 RMK AO2 T01700056
KGNC 122215Z AUTO 23007KT 10SM CLR 18/06 A2984 RMK AO2 T01750056
KGNC 122155Z AUTO 22011G14KT 10SM CLR 18/06 A2984 RMK AO2 T01780060 
KGNC 122135Z AUTO 24015KT 10SM CLR 18/04 A2984 RMK AO2 T01840042
KGNC 122115Z AUTO 23013G20KT 10SM CLR 19/03 A2985 RMK AO2 T01850031 
KGNC 122055Z AUTO 26010G18KT 10SM CLR 21/04 A2985 RMK AO2 T02050037 
KGNC 122035Z AUTO 24010KT 10SM CLR 20/04 A2986 RMK AO2 T01960035
KGNC 122015Z AUTO 26011G17KT 10SM CLR 19/04 A2987 RMK AO2 T01930035 
KGNC 121955Z AUTO 25013KT 10SM CLR 18/04 A2989 RMK AO2 T01780038
KGNC 121935Z AUTO 25015G21KT 10SM CLR 19/03 A2990 RMK AO2 T01850033 
KGNC 121915Z AUTO 24009KT 10SM CLR 18/03 A2992 RMK AO2 T01830033
KGNC 121855Z AUTO 24008KT 10SM CLR 17/02 A2994 RMK AO2 T01670022
KGNC 121835Z AUTO 23006KT 10SM CLR 15/01 A2995 RMK AO2 T01480010
KGNC 121815Z AUTO 24004KT 10SM CLR 13/00 A2996 RMK AO2 T01250004
KGNC 121755Z AUTO 26005KT 10SM CLR 11/00 A2998 RMK AO2 T01050000 10105 20026
KGNC 121735Z AUTO 25003KT 10SM CLR 09/00 A3000 RMK AO2 T00920000
KGNC 121715Z AUTO 00000KT 10SM CLR 09/00 A3001 RMK AO2 T00851001
KGNC 121655Z AUTO 28005KT 10SM CLR 08/00 A3001 RMK AO2 T00751002
KGNC 121635Z AUTO 27005KT 10SM CLR 06/00 A3002 RMK AO2 T00620000
KGNC 121615Z AUTO 27006KT 10SM CLR 06/00 A3002 RMK AO2 T00560000
KGNC 121555Z AUTO 30006KT 10SM CLR 05/00 A3002 RMK AO2 T00500001
KGNC 121535Z AUTO 29004KT 10SM CLR 05/00 A3002 RMK AO2 T00470004
KGNC 121515Z AUTO 28005KT 10SM CLR 04/00 A3002 RMK AO2 T00420003
KGNC 121455Z AUTO 29006KT 10SM CLR 03/00 A3001 RMK AO2 T00340002
KGNC 121435Z AUTO 30005KT 10SM CLR 04/00 A3001 RMK AO2 T00350000
KGNC 121415Z AUTO 31007KT 10SM CLR 03/00 A3001 RMK AO2 T00310002
KGNC 121355Z AUTO 31007KT 10SM CLR 03/01 A3001 RMK AO2 T00260008
KGNC 121335Z AUTO 28004KT 10SM CLR 04/01 A3002 RMK AO2 T00350011
KGNC 121315Z AUTO 28007KT 10SM CLR 05/02 A3002 RMK AO2 T00450019
KGNC 121255Z AUTO 28008KT 10SM CLR 04/03 A3001 RMK AO2 T00440028
KGNC 121235Z AUTO 27007KT 10SM CLR 04/03 A3001 RMK AO2 T00380034
KGNC 121215Z AUTO 27004KT 10SM CLR 03/03 A3001 RMK AO2 T00300029
KGNC 121155Z AUTO 00000KT 10SM CLR 04/03 A3001 RMK AO2 T00350034 10057 20035
KGNC 121135Z AUTO 29004KT 10SM CLR 04/04 A3002 RMK AO2 T00410039
KGNC 121115Z AUTO 24009KT 10SM CLR 04/04 A3002 RMK AO2 T00430041
KGNC 121055Z AUTO 25006KT 10SM CLR 05/04 A3002 RMK AO2 T00450043
KGNC 121035Z AUTO 26007KT 10SM CLR 04/04 A3002 RMK AO2 T00420042
KGNC 121015Z AUTO 25007KT 10SM CLR 05/05 A3003 RMK AO2 T00460046
KGNC 120955Z AUTO 25009KT 10SM CLR 05/05 A3005 RMK AO2 T00450045
KGNC 120935Z AUTO 30005KT 10SM CLR 05/05 A3005 RMK AO2 T00450045
KGNC 120915Z AUTO 24004KT 10SM CLR 05/05 A3004 RMK AO2 T00480048
KGNC 120855Z AUTO 24007KT 10SM CLR 05/05 A3004 RMK AO2 T00470047
KGNC 120835Z AUTO 27005KT 10SM CLR 05/05 A3004 RMK AO2 T00470047
KGNC 120815Z AUTO 26006KT 10SM CLR 05/05 A3004 RMK AO2 T00460046